sensor_id;sensor_type;location;lat;lon;timestamp;pressure;altitude;pressure_sealevel;temperature;humidity
163;BME280;3946;48.958;8.284;2023-01-24T00:00:49;102016.19;;;3.38;94.02
163;BME280;3946;48.958;8.284;2023-01-24T00:03:35;102028.16;;;3.37;94.15
163;BME280;3946;48.958;8.284;2023-01-24T00:06:21;102011.13;;;3.32;94.34
163;BME280;3946;48.958;8.284;2023-01-24T00:09:06;102018.78;;;3.35;93.92
163;BME280;3946;48.958;8.284;2023-01-24T00:11:51;102022.22;;;3.31;93.97
163;BME280;3946;48.958;8.284;2023-01-24T00:14:36;102021.38;;;3.29;94.17
163;BME280;3946;48.958;8.284;2023-01-24T00:17:21;102015.41;;;3.30;94.16
163;BME280;3946;48.958;8.284;2023-01-24T00:20:08;102019.69;;;3.26;93.96
163;BME280;3946;48.958;8.284;2023-01-24T00:22:55;102029.91;;;3.28;94.03
163;BME280;3946;48.958;8.284;2023-01-24T00:25:40;102017.97;;;3.25;94.52
163;BME280;3946;48.958;8.284;2023-01-24T00:28:25;102022.22;;;3.28;94.43
163;BME280;3946;48.958;8.284;2023-01-24T00:31:10;102023.09;;;3.27;94.55
163;BME280;3946;48.958;8.284;2023-01-24T00:33:55;102011.19;;;3.24;94.39
163;BME280;3946;48.958;8.284;2023-01-24T00:36:40;102010.34;;;3.19;94.24
163;BME280;3946;48.958;8.284;2023-01-24T00:39:27;102013.75;;;3.20;94.17
163;BME280;3946;48.958;8.284;2023-01-24T00:42:12;102024.84;;;3.22;94.12
163;BME280;3946;48.958;8.284;2023-01-24T00:44:57;102012.06;;;3.17;94.36
163;BME280;3946;48.958;8.284;2023-01-24T00:47:43;102021.47;;;3.16;94.66
163;BME280;3946;48.958;8.284;2023-01-24T00:50:28;102023.16;;;3.17;94.18
163;BME280;3946;48.958;8.284;2023-01-24T00:53:13;102021.47;;;3.18;94.26
163;BME280;3946;48.958;8.284;2023-01-24T00:55:59;102033.41;;;3.19;94.24
163;BME280;3946;48.958;8.284;2023-01-24T00:58:44;102024.00;;;3.18;94.24
163;BME280;3946;48.958;8.284;2023-01-24T01:01:29;102025.72;;;3.19;94.19
163;BME280;3946;48.958;8.284;2023-01-24T01:04:14;102028.28;;;3.19;94.26
163;BME280;3946;48.958;8.284;2023-01-24T01:06:59;102029.97;;;3.20;94.13
163;BME280;3946;48.958;8.284;2023-01-24T01:09:45;102019.81;;;3.08;94.21
163;BME280;3946;48.958;8.284;2023-01-24T01:12:32;102035.97;;;3.13;94.43
163;BME280;3946;48.958;8.284;2023-01-24T01:15:17;102030.00;;;3.12;94.27
163;BME280;3946;48.958;8.284;2023-01-24T01:18:02;102037.69;;;3.15;94.28
163;BME280;3946;48.958;8.284;2023-01-24T01:20:50;102036.00;;;3.11;94.36
163;BME280;3946;48.958;8.284;2023-01-24T01:23:35;102036.84;;;3.10;94.44
163;BME280;3946;48.958;8.284;2023-01-24T01:26:20;102038.53;;;3.13;94.06
163;BME280;3946;48.958;8.284;2023-01-24T01:29:07;102038.59;;;3.08;94.14
163;BME280;3946;48.958;8.284;2023-01-24T01:31:52;102037.72;;;3.09;94.36
163;BME280;3946;48.958;8.284;2023-01-24T01:34:40;102029.22;;;3.04;94.27
163;BME280;3946;48.958;8.284;2023-01-24T01:37:25;102043.72;;;3.08;94.27
163;BME280;3946;48.958;8.284;2023-01-24T01:40:10;102040.25;;;3.09;94.32
163;BME280;3946;48.958;8.284;2023-01-24T01:42:55;102040.25;;;3.09;94.50
163;BME280;3946;48.958;8.284;2023-01-24T01:45:42;102041.16;;;3.08;94.09
163;BME280;3946;48.958;8.284;2023-01-24T01:48:31;102037.75;;;3.05;94.29
163;BME280;3946;48.958;8.284;2023-01-24T01:51:19;102049.69;;;3.06;94.12
163;BME280;3946;48.958;8.284;2023-01-24T01:54:06;102044.59;;;3.06;94.11
163;BME280;3946;48.958;8.284;2023-01-24T01:56:53;102053.09;;;3.08;94.32
163;BME280;3946;48.958;8.284;2023-01-24T01:59:41;102058.22;;;3.08;94.30
163;BME280;3946;48.958;8.284;2023-01-24T02:02:29;102052.22;;;3.09;94.20
163;BME280;3946;48.958;8.284;2023-01-24T02:05:16;102044.56;;;3.07;94.25
163;BME280;3946;48.958;8.284;2023-01-24T02:08:03;102053.13;;;3.03;94.13
163;BME280;3946;48.958;8.284;2023-01-24T02:10:51;102060.78;;;3.06;94.02
163;BME280;3946;48.958;8.284;2023-01-24T02:13:54;102065.06;;;3.01;94.14
163;BME280;3946;48.958;8.284;2023-01-24T02:16:59;102060.81;;;3.05;94.24
163;BME280;3946;48.958;8.284;2023-01-24T02:19:52;102068.47;;;3.08;94.31
163;BME280;3946;48.958;8.284;2023-01-24T02:22:44;102073.56;;;3.11;94.29
163;BME280;3946;48.958;8.284;2023-01-24T02:25:34;102066.75;;;3.08;94.38
163;BME280;3946;48.958;8.284;2023-01-24T02:28:22;102066.72;;;3.10;94.19
163;BME280;3946;48.958;8.284;2023-01-24T02:31:08;102074.44;;;3.08;94.19
163;BME280;3946;48.958;8.284;2023-01-24T02:33:52;102062.50;;;3.04;94.44
163;BME280;3946;48.958;8.284;2023-01-24T02:36:37;102077.03;;;3.04;94.76
163;BME280;3946;48.958;8.284;2023-01-24T02:39:23;102081.28;;;3.05;94.69
163;BME280;3946;48.958;8.284;2023-01-24T02:42:11;102077.03;;;3.04;94.50
163;BME280;3946;48.958;8.284;2023-01-24T02:45:00;102085.53;;;3.06;94.73
163;BME280;3946;48.958;8.284;2023-01-24T02:47:48;102079.56;;;3.05;94.75
163;BME280;3946;48.958;8.284;2023-01-24T02:50:34;102080.44;;;3.00;94.70
163;BME280;3946;48.958;8.284;2023-01-24T02:53:33;102081.28;;;3.06;94.95
163;BME280;3946;48.958;8.284;2023-01-24T02:56:18;102084.69;;;3.02;94.92
163;BME280;3946;48.958;8.284;2023-01-24T02:59:21;102080.44;;;3.06;94.90
163;BME280;3946;48.958;8.284;2023-01-24T03:02:10;102088.97;;;3.03;95.00
163;BME280;3946;48.958;8.284;2023-01-24T03:04:56;102082.13;;;3.04;94.94
163;BME280;3946;48.958;8.284;2023-01-24T03:07:41;102083.84;;;3.05;95.02
163;BME280;3946;48.958;8.284;2023-01-24T03:10:33;102088.06;;;3.09;95.26
163;BME280;3946;48.958;8.284;2023-01-24T03:13:19;102087.22;;;3.10;94.97
163;BME280;3946;48.958;8.284;2023-01-24T03:16:22;102078.72;;;3.05;95.15
163;BME280;3946;48.958;8.284;2023-01-24T03:19:26;102084.69;;;3.08;94.91
163;BME280;3946;48.958;8.284;2023-01-24T03:22:29;102090.66;;;3.04;95.18
163;BME280;3946;48.958;8.284;2023-01-24T03:25:32;102080.44;;;3.06;95.31
163;BME280;3946;48.958;8.284;2023-01-24T03:28:34;102078.72;;;3.06;95.33
163;BME280;3946;48.958;8.284;2023-01-24T03:31:38;102086.41;;;3.08;95.29
163;BME280;3946;48.958;8.284;2023-01-24T03:34:45;102086.34;;;3.11;95.34
163;BME280;3946;48.958;8.284;2023-01-24T03:37:37;102088.91;;;3.09;95.38
163;BME280;3946;48.958;8.284;2023-01-24T03:40:40;102082.94;;;3.09;95.34
163;BME280;3946;48.958;8.284;2023-01-24T03:43:25;102094.00;;;3.17;95.22
163;BME280;3946;48.958;8.284;2023-01-24T03:46:10;102090.63;;;3.09;95.05
163;BME280;3946;48.958;8.284;2023-01-24T03:49:01;102087.22;;;3.10;95.22
163;BME280;3946;48.958;8.284;2023-01-24T03:51:53;102084.69;;;3.08;95.14
163;BME280;3946;48.958;8.284;2023-01-24T03:54:56;102075.25;;;3.09;95.18
163;BME280;3946;48.958;8.284;2023-01-24T03:57:41;102078.69;;;3.09;95.24
163;BME280;3946;48.958;8.284;2023-01-24T04:00:26;102083.84;;;3.08;95.35
163;BME280;3946;48.958;8.284;2023-01-24T04:03:15;102076.97;;;3.11;95.25
163;BME280;3946;48.958;8.284;2023-01-24T04:06:01;102078.66;;;3.11;95.37
163;BME280;3946;48.958;8.284;2023-01-24T04:08:49;102079.50;;;3.14;95.50
163;BME280;3946;48.958;8.284;2023-01-24T04:11:36;102081.22;;;3.12;95.61
163;BME280;3946;48.958;8.284;2023-01-24T04:14:28;102083.75;;;3.20;95.49
163;BME280;3946;48.958;8.284;2023-01-24T04:17:20;102077.81;;;3.15;95.24
163;BME280;3946;48.958;8.284;2023-01-24T04:20:09;102079.50;;;3.21;95.25
163;BME280;3946;48.958;8.284;2023-01-24T04:22:55;102076.97;;;3.13;95.32
163;BME280;3946;48.958;8.284;2023-01-24T04:25:48;102078.72;;;3.08;95.48
163;BME280;3946;48.958;8.284;2023-01-24T04:28:35;102083.78;;;3.09;95.44
163;BME280;3946;48.958;8.284;2023-01-24T04:31:21;102082.97;;;3.07;95.63
163;BME280;3946;48.958;8.284;2023-01-24T04:34:24;102081.22;;;3.12;95.73
163;BME280;3946;48.958;8.284;2023-01-24T04:37:10;102085.50;;;3.10;95.38
163;BME280;3946;48.958;8.284;2023-01-24T04:39:57;102085.53;;;3.07;95.63
163;BME280;3946;48.958;8.284;2023-01-24T04:42:44;102089.75;;;3.13;95.81
163;BME280;3946;48.958;8.284;2023-01-24T04:45:29;102084.66;;;3.10;95.82
163;BME280;3946;48.958;8.284;2023-01-24T04:48:15;102086.34;;;3.11;95.52
163;BME280;3946;48.958;8.284;2023-01-24T04:51:01;102093.19;;;3.10;95.77
163;BME280;3946;48.958;8.284;2023-01-24T04:53:47;102088.06;;;3.13;95.64
163;BME280;3946;48.958;8.284;2023-01-24T04:56:37;102093.16;;;3.13;95.89
163;BME280;3946;48.958;8.284;2023-01-24T04:59:23;102098.31;;;3.12;95.85
163;BME280;3946;48.958;8.284;2023-01-24T05:02:09;102093.16;;;3.13;95.68
163;BME280;3946;48.958;8.284;2023-01-24T05:04:59;102102.56;;;3.10;95.82
163;BME280;3946;48.958;8.284;2023-01-24T05:07:44;102099.19;;;3.08;96.25
163;BME280;3946;48.958;8.284;2023-01-24T05:10:33;102110.28;;;3.07;96.46
163;BME280;3946;48.958;8.284;2023-01-24T05:13:18;102101.72;;;3.09;95.71
163;BME280;3946;48.958;8.284;2023-01-24T05:16:06;102104.28;;;3.11;95.80
163;BME280;3946;48.958;8.284;2023-01-24T05:18:51;102115.41;;;3.07;95.69
163;BME280;3946;48.958;8.284;2023-01-24T05:21:37;102107.69;;;3.11;95.86
163;BME280;3946;48.958;8.284;2023-01-24T05:24:23;102111.97;;;3.09;95.94
163;BME280;3946;48.958;8.284;2023-01-24T05:27:08;102113.72;;;3.07;95.95
163;BME280;3946;48.958;8.284;2023-01-24T05:29:56;102117.06;;;3.19;95.68
163;BME280;3946;48.958;8.284;2023-01-24T05:32:42;102117.94;;;3.13;95.72
163;BME280;3946;48.958;8.284;2023-01-24T05:35:27;102119.63;;;3.12;95.67
163;BME280;3946;48.958;8.284;2023-01-24T05:38:13;102124.75;;;3.11;95.71
163;BME280;3946;48.958;8.284;2023-01-24T05:41:02;102123.03;;;3.16;95.79
163;BME280;3946;48.958;8.284;2023-01-24T05:43:47;102129.88;;;3.11;95.91
163;BME280;3946;48.958;8.284;2023-01-24T05:46:36;102121.31;;;3.21;95.67
163;BME280;3946;48.958;8.284;2023-01-24T05:49:30;102130.72;;;3.17;95.28
163;BME280;3946;48.958;8.284;2023-01-24T05:52:15;102133.28;;;3.16;95.49
163;BME280;3946;48.958;8.284;2023-01-24T05:55:07;102134.13;;;3.15;95.80
163;BME280;3946;48.958;8.284;2023-01-24T05:57:57;102135.00;;;3.12;96.07
163;BME280;3946;48.958;8.284;2023-01-24T06:01:05;102136.69;;;3.15;95.86
163;BME280;3946;48.958;8.284;2023-01-24T06:03:59;102140.13;;;3.15;96.00
163;BME280;3946;48.958;8.284;2023-01-24T06:06:46;102140.09;;;3.19;95.64
163;BME280;3946;48.958;8.284;2023-01-24T06:09:32;102145.22;;;3.15;95.84
163;BME280;3946;48.958;8.284;2023-01-24T06:12:17;102146.09;;;3.19;95.55
163;BME280;3946;48.958;8.284;2023-01-24T06:15:02;102152.91;;;3.19;95.75
163;BME280;3946;48.958;8.284;2023-01-24T06:17:48;102156.31;;;3.17;95.21
163;BME280;3946;48.958;8.284;2023-01-24T06:20:34;102157.19;;;3.18;95.78
163;BME280;3946;48.958;8.284;2023-01-24T06:23:24;102158.03;;;3.20;95.41
163;BME280;3946;48.958;8.284;2023-01-24T06:26:13;102172.56;;;3.15;95.60
163;BME280;3946;48.958;8.284;2023-01-24T06:28:59;102164.84;;;3.20;95.49
163;BME280;3946;48.958;8.284;2023-01-24T06:31:46;102170.78;;;3.26;95.32
163;BME280;3946;48.958;8.284;2023-01-24T06:34:34;102175.06;;;3.27;95.12
163;BME280;3946;48.958;8.284;2023-01-24T06:37:25;102176.81;;;3.21;95.12
163;BME280;3946;48.958;8.284;2023-01-24T06:40:17;102177.66;;;3.20;95.55
163;BME280;3946;48.958;8.284;2023-01-24T06:43:02;102185.34;;;3.16;95.31
163;BME280;3946;48.958;8.284;2023-01-24T06:45:47;102181.94;;;3.16;95.61
163;BME280;3946;48.958;8.284;2023-01-24T06:48:33;102182.81;;;3.12;95.55
163;BME280;3946;48.958;8.284;2023-01-24T06:51:18;102186.22;;;3.17;95.52
163;BME280;3946;48.958;8.284;2023-01-24T06:54:03;102188.78;;;3.15;95.26
163;BME280;3946;48.958;8.284;2023-01-24T06:56:49;102192.19;;;3.21;95.46
163;BME280;3946;48.958;8.284;2023-01-24T06:59:34;102194.75;;;3.16;95.58
163;BME280;3946;48.958;8.284;2023-01-24T07:02:19;102191.34;;;3.17;95.41
163;BME280;3946;48.958;8.284;2023-01-24T07:05:04;102197.31;;;3.14;95.44
163;BME280;3946;48.958;8.284;2023-01-24T07:07:49;102201.56;;;3.17;95.92
163;BME280;3946;48.958;8.284;2023-01-24T07:10:34;102201.56;;;3.14;95.27
163;BME280;3946;48.958;8.284;2023-01-24T07:13:20;102207.53;;;3.19;95.38
163;BME280;3946;48.958;8.284;2023-01-24T07:16:05;102206.69;;;3.17;95.45
163;BME280;3946;48.958;8.284;2023-01-24T07:18:51;102205.00;;;3.14;95.30
163;BME280;3946;48.958;8.284;2023-01-24T07:21:36;102199.00;;;3.14;95.46
163;BME280;3946;48.958;8.284;2023-01-24T07:24:24;102203.28;;;3.18;95.46
163;BME280;3946;48.958;8.284;2023-01-24T07:27:10;102211.81;;;3.19;95.48
163;BME280;3946;48.958;8.284;2023-01-24T07:29:57;102219.50;;;3.20;95.26
163;BME280;3946;48.958;8.284;2023-01-24T07:32:41;102220.34;;;3.16;95.49
163;BME280;3946;48.958;8.284;2023-01-24T07:35:27;102216.09;;;3.16;95.66
163;BME280;3946;48.958;8.284;2023-01-24T07:38:12;102218.66;;;3.20;95.68
163;BME280;3946;48.958;8.284;2023-01-24T07:40:57;102216.94;;;3.19;95.18
163;BME280;3946;48.958;8.284;2023-01-24T07:43:42;102225.44;;;3.27;95.33
163;BME280;3946;48.958;8.284;2023-01-24T07:46:28;102217.78;;;3.22;95.56
163;BME280;3946;48.958;8.284;2023-01-24T07:49:13;102218.66;;;3.18;95.63
163;BME280;3946;48.958;8.284;2023-01-24T07:51:58;102220.34;;;3.24;95.44
163;BME280;3946;48.958;8.284;2023-01-24T07:54:43;102228.84;;;3.27;95.52
163;BME280;3946;48.958;8.284;2023-01-24T07:57:28;102228.00;;;3.30;95.54
163;BME280;3946;48.958;8.284;2023-01-24T08:00:13;102234.81;;;3.34;95.42
163;BME280;3946;48.958;8.284;2023-01-24T08:03:00;102233.09;;;3.37;95.26
163;BME280;3946;48.958;8.284;2023-01-24T08:05:45;102236.53;;;3.35;95.08
163;BME280;3946;48.958;8.284;2023-01-24T08:08:30;102251.91;;;3.29;95.22
163;BME280;3946;48.958;8.284;2023-01-24T08:11:15;102250.19;;;3.31;95.26
163;BME280;3946;48.958;8.284;2023-01-24T08:14:01;102245.91;;;3.30;95.18
163;BME280;3946;48.958;8.284;2023-01-24T08:16:46;102251.03;;;3.33;95.25
163;BME280;3946;48.958;8.284;2023-01-24T08:19:32;102251.03;;;3.37;95.17
163;BME280;3946;48.958;8.284;2023-01-24T08:22:17;102257.88;;;3.35;95.33
163;BME280;3946;48.958;8.284;2023-01-24T08:25:02;102254.44;;;3.36;95.16
163;BME280;3946;48.958;8.284;2023-01-24T08:27:47;102255.31;;;3.34;95.27
163;BME280;3946;48.958;8.284;2023-01-24T08:30:32;102259.56;;;3.39;95.53
163;BME280;3946;48.958;8.284;2023-01-24T08:33:17;102255.28;;;3.40;95.40
163;BME280;3946;48.958;8.284;2023-01-24T08:36:04;102257.00;;;3.41;95.29
163;BME280;3946;48.958;8.284;2023-01-24T08:38:50;102261.22;;;3.49;95.36
163;BME280;3946;48.958;8.284;2023-01-24T08:41:35;102256.13;;;3.42;95.11
163;BME280;3946;48.958;8.284;2023-01-24T08:44:20;102269.78;;;3.47;95.21
163;BME280;3946;48.958;8.284;2023-01-24T08:47:05;102271.53;;;3.39;95.43
163;BME280;3946;48.958;8.284;2023-01-24T08:49:50;102273.19;;;3.44;95.59
163;BME280;3946;48.958;8.284;2023-01-24T08:52:36;102273.19;;;3.43;95.63
163;BME280;3946;48.958;8.284;2023-01-24T08:55:21;102278.31;;;3.50;95.36
163;BME280;3946;48.958;8.284;2023-01-24T08:58:07;102277.44;;;3.51;95.27
163;BME280;3946;48.958;8.284;2023-01-24T09:00:51;102282.56;;;3.50;95.49
163;BME280;3946;48.958;8.284;2023-01-24T09:03:36;102287.72;;;3.48;94.85
163;BME280;3946;48.958;8.284;2023-01-24T09:06:21;102292.81;;;3.53;95.01
163;BME280;3946;48.958;8.284;2023-01-24T09:09:08;102287.69;;;3.56;95.01
163;BME280;3946;48.958;8.284;2023-01-24T09:11:53;102294.53;;;3.56;95.06
163;BME280;3946;48.958;8.284;2023-01-24T09:14:38;102292.81;;;3.56;95.11
163;BME280;3946;48.958;8.284;2023-01-24T09:17:23;102296.19;;;3.63;95.00
163;BME280;3946;48.958;8.284;2023-01-24T09:20:08;102292.78;;;3.58;94.63
163;BME280;3946;48.958;8.284;2023-01-24T09:22:54;102292.78;;;3.62;94.90
163;BME280;3946;48.958;8.284;2023-01-24T09:25:40;102294.50;;;3.59;94.94
163;BME280;3946;48.958;8.284;2023-01-24T09:28:25;102293.63;;;3.64;94.50
163;BME280;3946;48.958;8.284;2023-01-24T09:31:11;102297.88;;;3.70;94.60
163;BME280;3946;48.958;8.284;2023-01-24T09:33:56;102305.56;;;3.70;94.30
163;BME280;3946;48.958;8.284;2023-01-24T09:36:41;102299.53;;;3.80;94.40
163;BME280;3946;48.958;8.284;2023-01-24T09:39:26;102304.69;;;3.75;93.48
163;BME280;3946;48.958;8.284;2023-01-24T09:42:16;102302.13;;;3.75;93.86
163;BME280;3946;48.958;8.284;2023-01-24T09:45:12;102306.38;;;3.81;93.97
163;BME280;3946;48.958;8.284;2023-01-24T09:47:59;102309.78;;;3.81;93.81
163;BME280;3946;48.958;8.284;2023-01-24T09:50:46;102302.09;;;3.83;93.76
163;BME280;3946;48.958;8.284;2023-01-24T09:53:34;102312.34;;;3.84;93.51
163;BME280;3946;48.958;8.284;2023-01-24T09:56:22;102312.34;;;3.86;93.67
163;BME280;3946;48.958;8.284;2023-01-24T09:59:21;102314.91;;;3.89;93.53
163;BME280;3946;48.958;8.284;2023-01-24T10:02:12;102305.50;;;3.86;93.28
163;BME280;3946;48.958;8.284;2023-01-24T10:04:59;102306.38;;;3.85;93.20
163;BME280;3946;48.958;8.284;2023-01-24T10:08:01;102305.53;;;3.80;92.92
163;BME280;3946;48.958;8.284;2023-01-24T10:10:51;102308.09;;;3.82;93.38
163;BME280;3946;48.958;8.284;2023-01-24T10:13:45;102302.94;;;3.85;93.42
163;BME280;3946;48.958;8.284;2023-01-24T10:16:41;102307.16;;;3.94;93.22
163;BME280;3946;48.958;8.284;2023-01-24T10:19:36;102302.09;;;3.80;92.88
163;BME280;3946;48.958;8.284;2023-01-24T10:22:34;102305.53;;;3.80;93.12
163;BME280;3946;48.958;8.284;2023-01-24T10:25:24;102298.63;;;3.92;93.31
163;BME280;3946;48.958;8.284;2023-01-24T10:28:12;102294.34;;;3.98;92.59
163;BME280;3946;48.958;8.284;2023-01-24T10:31:02;102287.47;;;4.00;92.61
163;BME280;3946;48.958;8.284;2023-01-24T10:33:51;102278.88;;;4.09;92.57
163;BME280;3946;48.958;8.284;2023-01-24T10:36:39;102295.19;;;4.02;92.32
163;BME280;3946;48.958;8.284;2023-01-24T10:39:27;102289.19;;;4.06;92.07
163;BME280;3946;48.958;8.284;2023-01-24T10:42:14;102285.72;;;4.07;92.53
163;BME280;3946;48.958;8.284;2023-01-24T10:45:09;102294.25;;;4.07;92.20
163;BME280;3946;48.958;8.284;2023-01-24T10:48:02;102291.66;;;4.16;92.24
163;BME280;3946;48.958;8.284;2023-01-24T10:50:52;102287.47;;;4.05;91.74
163;BME280;3946;48.958;8.284;2023-01-24T10:53:37;102282.34;;;4.03;92.24
163;BME280;3946;48.958;8.284;2023-01-24T10:56:22;102282.28;;;4.08;92.11
163;BME280;3946;48.958;8.284;2023-01-24T10:59:09;102284.00;;;4.09;91.77
163;BME280;3946;48.958;8.284;2023-01-24T11:01:58;102280.56;;;4.10;91.83
163;BME280;3946;48.958;8.284;2023-01-24T11:04:44;102291.66;;;4.16;91.78
163;BME280;3946;48.958;8.284;2023-01-24T11:07:30;102279.69;;;4.18;91.68
163;BME280;3946;48.958;8.284;2023-01-24T11:10:20;102278.84;;;4.19;91.67
163;BME280;3946;48.958;8.284;2023-01-24T11:13:18;102283.88;;;4.30;91.32
163;BME280;3946;48.958;8.284;2023-01-24T11:16:18;102284.72;;;4.34;91.22
163;BME280;3946;48.958;8.284;2023-01-24T11:19:04;102277.91;;;4.27;91.24
163;BME280;3946;48.958;8.284;2023-01-24T11:21:50;102278.81;;;4.21;91.49
163;BME280;3946;48.958;8.284;2023-01-24T11:24:42;102277.88;;;4.31;91.08
163;BME280;3946;48.958;8.284;2023-01-24T11:27:28;102270.09;;;4.43;90.80
163;BME280;3946;48.958;8.284;2023-01-24T11:30:15;102275.22;;;4.43;90.99
163;BME280;3946;48.958;8.284;2023-01-24T11:33:05;102268.38;;;4.42;90.52
163;BME280;3946;48.958;8.284;2023-01-24T11:35:54;102270.16;;;4.37;90.92
163;BME280;3946;48.958;8.284;2023-01-24T11:38:40;102269.22;;;4.47;90.81
163;BME280;3946;48.958;8.284;2023-01-24T11:41:28;102263.91;;;4.69;90.35
163;BME280;3946;48.958;8.284;2023-01-24T11:47:15;102266.63;;;4.50;90.56
163;BME280;3946;48.958;8.284;2023-01-24T11:50:15;102270.91;;;4.53;90.67
163;BME280;3946;48.958;8.284;2023-01-24T11:53:13;102262.34;;;4.51;90.52
163;BME280;3946;48.958;8.284;2023-01-24T11:56:05;102259.72;;;4.55;90.25
163;BME280;3946;48.958;8.284;2023-01-24T11:59:03;102259.69;;;4.63;90.30
163;BME280;3946;48.958;8.284;2023-01-24T12:01:54;102256.28;;;4.56;90.10
163;BME280;3946;48.958;8.284;2023-01-24T12:04:45;102259.78;;;4.52;90.57
163;BME280;3946;48.958;8.284;2023-01-24T12:07:41;102256.34;;;4.52;90.59
163;BME280;3946;48.958;8.284;2023-01-24T12:10:33;102250.34;;;4.54;90.83
163;BME280;3946;48.958;8.284;2023-01-24T12:13:25;102248.53;;;4.64;90.65
163;BME280;3946;48.958;8.284;2023-01-24T12:16:16;102242.69;;;4.48;90.30
163;BME280;3946;48.958;8.284;2023-01-24T12:19:08;102241.09;;;4.37;90.93
163;BME280;3946;48.958;8.284;2023-01-24T12:22:01;102247.00;;;4.45;90.73
163;BME280;3946;48.958;8.284;2023-01-24T12:24:50;102239.25;;;4.52;91.20
163;BME280;3946;48.958;8.284;2023-01-24T12:27:36;102241.75;;;4.57;90.66
163;BME280;3946;48.958;8.284;2023-01-24T12:30:23;102223.00;;;4.49;90.36
163;BME280;3946;48.958;8.284;2023-01-24T12:33:13;102226.28;;;4.65;90.86
163;BME280;3946;48.958;8.284;2023-01-24T12:36:03;102228.84;;;4.68;90.29
163;BME280;3946;48.958;8.284;2023-01-24T12:38:49;102227.03;;;4.76;90.09
163;BME280;3946;48.958;8.284;2023-01-24T12:41:37;102219.41;;;4.68;89.87
163;BME280;3946;48.958;8.284;2023-01-24T12:44:24;102218.59;;;4.63;90.25
163;BME280;3946;48.958;8.284;2023-01-24T12:47:12;102224.63;;;4.59;90.40
163;BME280;3946;48.958;8.284;2023-01-24T12:50:07;102227.25;;;4.53;90.06
163;BME280;3946;48.958;8.284;2023-01-24T12:53:01;102211.78;;;4.61;90.29
163;BME280;3946;48.958;8.284;2023-01-24T12:55:51;102222.03;;;4.62;90.81
163;BME280;3946;48.958;8.284;2023-01-24T12:58:39;102218.66;;;4.55;90.48
163;BME280;3946;48.958;8.284;2023-01-24T13:01:30;102211.81;;;4.56;90.19
163;BME280;3946;48.958;8.284;2023-01-24T13:04:19;102216.16;;;4.48;90.78
163;BME280;3946;48.958;8.284;2023-01-24T13:07:11;102222.91;;;4.58;90.96
163;BME280;3946;48.958;8.284;2023-01-24T13:10:00;102217.63;;;4.75;90.64
163;BME280;3946;48.958;8.284;2023-01-24T13:12:47;102217.78;;;4.58;90.36
163;BME280;3946;48.958;8.284;2023-01-24T13:15:34;102214.47;;;4.48;90.40
163;BME280;3946;48.958;8.284;2023-01-24T13:18:28;102217.00;;;4.50;90.78
163;BME280;3946;48.958;8.284;2023-01-24T13:21:18;102219.44;;;4.65;90.39
163;BME280;3946;48.958;8.284;2023-01-24T13:24:12;102225.47;;;4.60;90.67
163;BME280;3946;48.958;8.284;2023-01-24T13:30:18;102221.28;;;4.54;90.73
163;BME280;3946;48.958;8.284;2023-01-24T13:33:08;102212.81;;;4.40;91.01
163;BME280;3946;48.958;8.284;2023-01-24T13:35:57;102214.44;;;4.53;91.24
163;BME280;3946;48.958;8.284;2023-01-24T13:38:42;102219.59;;;4.50;90.46
163;BME280;3946;48.958;8.284;2023-01-24T13:41:36;102216.16;;;4.48;90.94
163;BME280;3946;48.958;8.284;2023-01-24T13:44:28;102224.84;;;4.36;91.31
163;BME280;3946;48.958;8.284;2023-01-24T13:47:21;102209.38;;;4.41;91.06
163;BME280;3946;48.958;8.284;2023-01-24T13:50:12;102211.03;;;4.51;91.02
163;BME280;3946;48.958;8.284;2023-01-24T13:52:57;102212.78;;;4.44;91.42
163;BME280;3946;48.958;8.284;2023-01-24T13:58:42;102217.91;;;4.44;91.25
163;BME280;3946;48.958;8.284;2023-01-24T14:01:31;102215.41;;;4.37;91.58
163;BME280;3946;48.958;8.284;2023-01-24T14:04:17;102221.34;;;4.43;90.99
163;BME280;3946;48.958;8.284;2023-01-24T14:07:02;102216.22;;;4.42;91.09
163;BME280;3946;48.958;8.284;2023-01-24T14:10:02;102223.91;;;4.42;91.56
163;BME280;3946;48.958;8.284;2023-01-24T14:12:52;102214.50;;;4.41;90.91
163;BME280;3946;48.958;8.284;2023-01-24T14:15:39;102222.25;;;4.38;90.89
163;BME280;3946;48.958;8.284;2023-01-24T14:18:42;102221.31;;;4.45;91.25
163;BME280;3946;48.958;8.284;2023-01-24T14:21:31;102219.59;;;4.47;91.02
163;BME280;3946;48.958;8.284;2023-01-24T14:24:19;102224.72;;;4.50;91.08
163;BME280;3946;48.958;8.284;2023-01-24T14:27:14;102229.84;;;4.48;91.68
163;BME280;3946;48.958;8.284;2023-01-24T14:30:09;102229.88;;;4.44;92.62
163;BME280;3946;48.958;8.284;2023-01-24T14:33:03;102233.50;;;4.20;93.75
163;BME280;3946;48.958;8.284;2023-01-24T14:36:00;102233.56;;;4.11;94.08
163;BME280;3946;48.958;8.284;2023-01-24T14:38:46;102230.19;;;4.06;94.70
163;BME280;3946;48.958;8.284;2023-01-24T14:41:31;102232.69;;;4.10;95.10
163;BME280;3946;48.958;8.284;2023-01-24T14:44:17;102243.88;;;4.00;95.24
163;BME280;3946;48.958;8.284;2023-01-24T14:47:04;102233.66;;;3.93;95.61
163;BME280;3946;48.958;8.284;2023-01-24T14:49:51;102237.91;;;3.98;95.98
163;BME280;3946;48.958;8.284;2023-01-24T14:52:37;102243.13;;;3.88;95.80
163;BME280;3946;48.958;8.284;2023-01-24T14:55:29;102239.63;;;3.95;96.05
163;BME280;3946;48.958;8.284;2023-01-24T14:58:18;102239.66;;;3.92;96.00
163;BME280;3946;48.958;8.284;2023-01-24T15:01:03;102245.69;;;3.89;96.01
163;BME280;3946;48.958;8.284;2023-01-24T15:04:05;102254.19;;;3.93;96.07
163;BME280;3946;48.958;8.284;2023-01-24T15:07:05;102245.63;;;3.91;96.26
163;BME280;3946;48.958;8.284;2023-01-24T15:09:50;102253.31;;;3.92;95.96
163;BME280;3946;48.958;8.284;2023-01-24T15:12:36;102248.19;;;3.95;95.95
163;BME280;3946;48.958;8.284;2023-01-24T15:15:21;102251.66;;;3.86;96.03
163;BME280;3946;48.958;8.284;2023-01-24T15:18:25;102251.63;;;3.93;95.79
163;BME280;3946;48.958;8.284;2023-01-24T15:21:18;102249.03;;;3.96;95.93
163;BME280;3946;48.958;8.284;2023-01-24T15:24:05;102257.59;;;3.95;96.04
163;BME280;3946;48.958;8.284;2023-01-24T15:27:02;102261.88;;;3.91;95.75
163;BME280;3946;48.958;8.284;2023-01-24T15:30:07;102256.69;;;4.03;95.89
163;BME280;3946;48.958;8.284;2023-01-24T15:33:00;102261.00;;;3.95;95.56
163;BME280;3946;48.958;8.284;2023-01-24T15:35:45;102256.75;;;3.91;95.56
163;BME280;3946;48.958;8.284;2023-01-24T15:38:31;102266.16;;;3.92;95.54